Time;durP1;ratioP1;P1;durP2;ratioP2;P2;SDS_P1;SDS_P2;PMS_P1;PMS_P2;Temp;Humidity;BMP_temperature;BMP_pressure;BME280_temperature;BME280_humidity;BME280_pressure;Samples;Min_cycle;Max_cycle;Signal;HPM_P1;HPM_P2
2022/12/22 03:26:55;;;;;;;;;;;;;;;;;;5014912;28;20369;-80
2022/12/22 03:29:21;;;;;;;;;;;;;;;;;;5014797;28;19918;-79
2022/12/22 03:31:46;;;;;;;;;;;;;;;;;;5015960;28;19922;-79
2022/12/22 03:34:11;;;;;;;;;;;;;;;;;;5016013;28;20332;-79
2022/12/22 03:36:37;;;;;;;;;;;;;;;;;;5016129;28;19995;-78
2022/12/22 03:39:02;;;;;;;;;;;;;;;;;;5015224;28;19918;-79
2022/12/22 03:46:56;;;;;;;;;;;;;;;;;;5019123;28;19917;-78
2022/12/22 03:49:21;;;;;;;;;;;;;;;;;;5018736;28;20395;-80
2022/12/22 03:51:47;;;;;;;;;;;;;;;;;;5018506;28;19914;-78
2022/12/22 03:54:12;;;;;;;;;;;;;;;;;;5019765;28;19918;-78
2022/12/22 03:56:38;;;;;;;;;;;;;;;;;;5018810;28;20377;-78
2022/12/22 03:59:03;;;;;;;;;;;;;;;;;;5018842;28;20280;-79
2022/12/22 04:01:28;;;;;;;;;;;;;;;;;;5018104;28;20345;-79
2022/12/22 04:03:54;;;;;;;;;;;;;;;;;;5018722;28;20397;-79
2022/12/22 04:06:19;;;;;;;;;;;;;;;;;;5001004;28;20332;-79
2022/12/22 04:08:45;;;;;;;;;;;;;;;;;;5017971;28;19913;-78
2022/12/22 04:13:54;;;;;;;;;;;;;;;;;;5018393;28;19918;-79
2022/12/22 04:16:20;;;;;;;;;;;;;;;;;;5017358;28;19916;-79
2022/12/22 04:18:45;;;;;;;;;;;;;;;;;;5019061;28;19975;-78
2022/12/22 04:21:10;;;;;;;;;;;;;;;;;;4999039;28;20017;-78
2022/12/22 04:23:36;;;;;;;;;;;;;;;;;;5017358;28;19919;-79
2022/12/22 04:26:01;;;;;;;;;;;;;;;;;;5020197;28;19914;-79
2022/12/22 04:28:27;;;;;;;;;;;;;;;;;;5017727;28;19924;-78
2022/12/22 04:30:52;;;;;;;;;;;;;;;;;;5018834;28;19918;-78
2022/12/22 04:33:18;;;;;;;;;;;;;;;;;;5020287;28;19923;-78
2022/12/22 04:35:43;;;;;;;;;;;;;;;;;;5022187;28;19985;-77
2022/12/22 04:38:08;;;;;;;;;;;;;;;;;;5017813;28;19917;-80
2022/12/22 04:40:34;;;;;;;;;;;;;;;;;;5015780;28;19913;-78
2022/12/22 04:42:59;;;;;;;;;;;;;;;;;;5015917;28;19914;-78
2022/12/22 04:45:25;;;;;;;;;;;;;;;;;;5016672;28;19972;-81
2022/12/22 04:47:50;;;;;;;;;;;;;;;;;;5017746;28;19921;-78
2022/12/22 04:50:15;;;;;;;;;;;;;;;;;;5019686;28;19919;-80
2022/12/22 04:52:41;;;;;;;;;;;;;;;;;;5021462;28;19976;-77
2022/12/22 04:55:06;;;;;;;;;;;;;;;;;;5019071;28;20385;-78
2022/12/22 04:57:32;;;;;;;;;;;;;;;;;;5019971;28;20377;-77
2022/12/22 04:59:57;;;;;;;;;;;;;;;;;;5018416;28;19914;-78
2022/12/22 05:02:22;;;;;;;;;;;;;;;;;;5015019;28;19917;-78
2022/12/22 05:04:48;;;;;;;;;;;;;;;;;;5013828;28;19913;-78
2022/12/22 05:07:13;;;;;;;;;;;;;;;;;;5013890;28;20377;-79
2022/12/22 05:09:38;;;;;;;;;;;;;;;;;;5013048;28;19941;-78
2022/12/22 05:12:53;;;;;;;;;;;;;;;;;;5012957;28;20269;-79
2022/12/22 05:14:49;;;;;;;;;;;;;;;;;;5012228;28;20376;-79
2022/12/22 05:17:14;;;;;;;;;;;;;;;;;;5014046;28;19913;-79
2022/12/22 05:19:40;;;;;;;;;;;;;;;;;;5012665;28;20055;-78
2022/12/22 05:22:05;;;;;;;;;;;;;;;;;;5013923;28;20403;-80
2022/12/22 05:24:31;;;;;;;;;;;;;;;;;;5013690;28;19913;-79
2022/12/22 05:26:56;;;;;;;;;;;;;;;;;;5013899;28;20044;-77
2022/12/22 05:29:21;;;;;;;;;;;;;;;;;;5012759;22;20345;-78
2022/12/22 05:31:47;;;;;;;;;;;;;;;;;;4997887;28;20321;-78
2022/12/22 05:34:12;;;;;;;;;;;;;;;;;;4996525;28;20338;-78
2022/12/22 05:36:38;;;;;;;;;;;;;;;;;;4996823;28;19914;-77
2022/12/22 05:39:03;;;;;;;;;;;;;;;;;;4999077;28;19921;-77
2022/12/22 05:41:28;;;;;;;;;;;;;;;;;;4998989;28;20288;-77
2022/12/22 05:43:54;;;;;;;;;;;;;;;;;;4998192;28;19953;-77
2022/12/22 05:46:19;;;;;;;;;;;;;;;;;;4996600;28;20301;-77
2022/12/22 05:48:44;;;;;;;;;;;;;;;;;;4997093;28;19995;-78
2022/12/22 05:51:10;;;;;;;;;;;;;;;;;;4997854;28;19967;-78
2022/12/22 05:53:35;;;;;;;;;;;;;;;;;;4995482;28;19928;-77
2022/12/22 05:56:01;;;;;;;;;;;;;;;;;;4996678;28;19984;-77
2022/12/22 05:58:26;;;;;;;;;;;;;;;;;;4996135;28;20365;-77
2022/12/22 06:00:51;;;;;;;;;;;;;;;;;;4995186;28;19914;-77
2022/12/22 06:03:17;;;;;;;;;;;;;;;;;;4996289;28;19914;-76
2022/12/22 06:05:42;;;;;;;;;;;;;;;;;;4994774;28;19913;-76
2022/12/22 06:08:07;;;;;;;;;;;;;;;;;;4996900;28;19918;-76
2022/12/22 06:10:33;;;;;;;;;;;;;;;;;;4996966;28;19920;-76
2022/12/22 06:12:58;;;;;;;;;;;;;;;;;;4996226;28;19922;-77
2022/12/22 06:15:24;;;;;;;;;;;;;;;;;;4995445;28;20053;-76
2022/12/22 06:17:49;;;;;;;;;;;;;;;;;;4997521;28;19998;-76
2022/12/22 06:20:14;;;;;;;;;;;;;;;;;;4997496;28;20370;-77
2022/12/22 06:22:40;;;;;;;;;;;;;;;;;;4997285;28;19914;-76
2022/12/22 06:25:05;;;;;;;;;;;;;;;;;;4995915;28;19957;-76
2022/12/22 06:27:30;;;;;;;;;;;;;;;;;;4980224;28;19939;-77
2022/12/22 06:29:56;;;;;;;;;;;;;;;;;;4979647;28;20004;-76
2022/12/22 06:32:21;;;;;;;;;;;;;;;;;;4996830;28;20409;-76
2022/12/22 06:34:47;;;;;;;;;;;;;;;;;;4998299;28;19964;-76
2022/12/22 06:37:12;;;;;;;;;;;;;;;;;;4995888;28;19914;-76
2022/12/22 06:39:37;;;;;;;;;;;;;;;;;;4997162;28;20474;-76
2022/12/22 06:44:49;;;;;;;;;;;;;;;;;;4996770;28;19921;-76
2022/12/22 06:47:14;;;;;;;;;;;;;;;;;;4999119;28;19921;-76
2022/12/22 06:49:41;;;;;;;;;;;;;;;;;;5000732;28;19918;-77
2022/12/22 06:52:06;;;;;;;;;;;;;;;;;;4966887;28;19917;-76
2022/12/22 06:54:31;;;;;;;;;;;;;;;;;;4983366;28;19924;-77
2022/12/22 06:56:57;;;;;;;;;;;;;;;;;;4998950;28;20428;-77
2022/12/22 06:59:22;;;;;;;;;;;;;;;;;;4997241;28;19914;-76
2022/12/22 07:01:48;;;;;;;;;;;;;;;;;;4998065;28;19914;-76
2022/12/22 07:04:18;;;;;;;;;;;;;;;;;;4998081;28;19968;-76
2022/12/22 07:06:43;;;;;;;;;;;;;;;;;;4997292;28;19913;-76
2022/12/22 07:09:09;;;;;;;;;;;;;;;;;;4999089;28;19979;-77
2022/12/22 07:11:34;;;;;;;;;;;;;;;;;;4982140;28;19913;-76
2022/12/22 07:14:00;;;;;;;;;;;;;;;;;;4998984;28;19918;-76
2022/12/22 07:16:25;;;;;;;;;;;;;;;;;;4984128;28;20363;-76
2022/12/22 07:18:50;;;;;;;;;;;;;;;;;;4982157;28;19920;-76
2022/12/22 07:21:16;;;;;;;;;;;;;;;;;;4996949;28;19924;-77
2022/12/22 07:23:41;;;;;;;;;;;;;;;;;;4981213;28;19913;-77
2022/12/22 07:26:07;;;;;;;;;;;;;;;;;;5000771;28;19914;-76
2022/12/22 07:28:33;;;;;;;;;;;;;;;;;;4999108;28;19925;-76
2022/12/22 07:30:58;;;;;;;;;;;;;;;;;;4999150;28;19933;-77
2022/12/22 07:33:23;;;;;;;;;;;;;;;;;;5000025;28;19918;-77
2022/12/22 07:35:49;;;;;;;;;;;;;;;;;;4984527;28;19921;-76
2022/12/22 07:38:14;;;;;;;;;;;;;;;;;;4997428;28;19918;-76
2022/12/22 07:40:40;;;;;;;;;;;;;;;;;;4981398;28;19957;-76
2022/12/22 07:43:06;;;;;;;;;;;;;;;;;;4997892;28;19914;-76
2022/12/22 07:45:32;;;;;;;;;;;;;;;;;;4999435;28;19914;-77
2022/12/22 07:47:58;;;;;;;;;;;;;;;;;;5002142;28;20285;-77
2022/12/22 07:50:26;;;;;;;;;;;;;;;;;;5004211;28;20388;-77
2022/12/22 07:52:52;;;;;;;;;;;;;;;;;;5003901;28;19918;-76
2022/12/22 07:55:17;;;;;;;;;;;;;;;;;;5005901;28;19914;-77
2022/12/22 07:57:43;;;;;;;;;;;;;;;;;;4999466;28;19914;-76
2022/12/22 08:00:08;;;;;;;;;;;;;;;;;;5000963;28;19961;-77
2022/12/22 08:02:37;;;;;;;;;;;;;;;;;;5001208;28;19913;-76
2022/12/22 08:05:03;;;;;;;;;;;;;;;;;;5000988;28;20349;-76
2022/12/22 08:07:28;;;;;;;;;;;;;;;;;;5002446;28;19914;-76
2022/12/22 08:09:53;;;;;;;;;;;;;;;;;;4999531;28;19914;-76
2022/12/22 08:12:19;;;;;;;;;;;;;;;;;;5004207;28;19925;-77
2022/12/22 08:14:44;;;;;;;;;;;;;;;;;;5006237;28;19917;-77
2022/12/22 08:17:10;;;;;;;;;;;;;;;;;;5005697;28;19937;-76
2022/12/22 08:19:38;;;;;;;;;;;;;;;;;;4998972;28;19972;-77
2022/12/22 08:22:04;;;;;;;;;;;;;;;;;;4982306;28;19914;-76
2022/12/22 08:24:29;;;;;;;;;;;;;;;;;;5001164;28;19914;-76
2022/12/22 08:26:55;;;;;;;;;;;;;;;;;;5002768;28;19920;-76
2022/12/22 08:29:20;;;;;;;;;;;;;;;;;;4987461;28;19922;-77
2022/12/22 08:31:45;;;;;;;;;;;;;;;;;;5002892;28;20356;-76
2022/12/22 08:34:11;;;;;;;;;;;;;;;;;;5001349;28;19925;-77
2022/12/22 08:36:36;;;;;;;;;;;;;;;;;;5003502;28;20282;-77
2022/12/22 08:39:02;;;;;;;;;;;;;;;;;;4981811;28;19914;-77
2022/12/22 08:44:11;;;;;;;;;;;;;;;;;;4995026;28;20408;-77
2022/12/22 08:46:37;;;;;;;;;;;;;;;;;;4996265;28;19914;-76
2022/12/22 08:49:02;;;;;;;;;;;;;;;;;;4995535;28;19960;-77
2022/12/22 08:51:28;;;;;;;;;;;;;;;;;;4995971;28;19948;-76
2022/12/22 08:53:53;;;;;;;;;;;;;;;;;;4995763;28;19918;-77
2022/12/22 08:56:19;;;;;;;;;;;;;;;;;;4995507;28;20380;-77
2022/12/22 08:58:44;;;;;;;;;;;;;;;;;;4994598;28;19914;-76
2022/12/22 09:01:09;;;;;;;;;;;;;;;;;;4994348;28;19920;-77
2022/12/22 09:03:35;;;;;;;;;;;;;;;;;;4994024;28;19933;-76
2022/12/22 09:06:09;;;;;;;;;;;;;;;;;;4995193;28;19960;-77
2022/12/22 09:08:35;;;;;;;;;;;;;;;;;;4993479;28;19914;-76
2022/12/22 09:11:00;;;;;;;;;;;;;;;;;;4996031;28;20270;-77
2022/12/22 09:13:25;;;;;;;;;;;;;;;;;;4995679;28;19925;-77
2022/12/22 09:15:51;;;;;;;;;;;;;;;;;;4995536;28;19914;-77
2022/12/22 09:18:16;;;;;;;;;;;;;;;;;;4993927;28;19972;-77
2022/12/22 09:20:42;;;;;;;;;;;;;;;;;;4994695;28;19910;-77
2022/12/22 09:23:07;;;;;;;;;;;;;;;;;;4993659;28;19921;-77
2022/12/22 09:25:32;;;;;;;;;;;;;;;;;;4995025;28;20301;-77
2022/12/22 09:27:58;;;;;;;;;;;;;;;;;;4993542;28;20064;-77
2022/12/22 09:30:23;;;;;;;;;;;;;;;;;;4994692;28;19922;-77
2022/12/22 09:32:48;;;;;;;;;;;;;;;;;;4995567;28;19940;-77
2022/12/22 09:35:14;;;;;;;;;;;;;;;;;;4995598;28;19949;-77
2022/12/22 09:37:39;;;;;;;;;;;;;;;;;;4977927;28;19917;-77
2022/12/22 09:40:05;;;;;;;;;;;;;;;;;;4995408;28;19937;-77
2022/12/22 09:42:30;;;;;;;;;;;;;;;;;;4994343;28;20389;-77
2022/12/22 09:44:55;;;;;;;;;;;;;;;;;;4995181;28;19946;-76
2022/12/22 09:47:21;;;;;;;;;;;;;;;;;;4994718;28;20443;-77
2022/12/22 09:49:46;;;;;;;;;;;;;;;;;;4994034;28;19918;-77
2022/12/22 09:52:11;;;;;;;;;;;;;;;;;;4994171;28;19917;-76
2022/12/22 09:54:37;;;;;;;;;;;;;;;;;;4977260;28;19922;-76
2022/12/22 09:57:02;;;;;;;;;;;;;;;;;;4993247;28;19918;-77
2022/12/22 09:59:28;;;;;;;;;;;;;;;;;;4994122;28;19918;-77
2022/12/22 10:01:54;;;;;;;;;;;;;;;;;;4994489;28;19918;-77
2022/12/22 10:04:20;;;;;;;;;;;;;;;;;;4994011;28;19967;-77
2022/12/22 10:06:45;;;;;;;;;;;;;;;;;;4993441;28;20013;-77
2022/12/22 10:09:11;;;;;;;;;;;;;;;;;;4994164;28;19913;-76
2022/12/22 10:11:36;;;;;;;;;;;;;;;;;;4993844;28;20430;-77
2022/12/22 10:14:01;;;;;;;;;;;;;;;;;;4976678;28;19972;-76
2022/12/22 10:16:27;;;;;;;;;;;;;;;;;;4994010;28;19913;-76
2022/12/22 10:18:52;;;;;;;;;;;;;;;;;;4992795;28;19921;-77
2022/12/22 10:21:17;;;;;;;;;;;;;;;;;;4992973;28;20281;-77
2022/12/22 10:23:43;;;;;;;;;;;;;;;;;;4992806;28;19949;-76
2022/12/22 10:26:08;;;;;;;;;;;;;;;;;;4995388;28;19921;-76
2022/12/22 10:28:34;;;;;;;;;;;;;;;;;;4994122;28;19983;-77
2022/12/22 10:30:59;;;;;;;;;;;;;;;;;;4994947;28;19918;-76
2022/12/22 10:33:25;;;;;;;;;;;;;;;;;;4994190;28;20445;-76
2022/12/22 10:35:50;;;;;;;;;;;;;;;;;;4994726;28;19925;-76
2022/12/22 10:38:15;;;;;;;;;;;;;;;;;;4994027;28;19984;-76
2022/12/22 10:40:41;;;;;;;;;;;;;;;;;;4994983;28;19914;-76
2022/12/22 10:43:06;;;;;;;;;;;;;;;;;;4994570;28;20374;-76
2022/12/22 10:45:31;;;;;;;;;;;;;;;;;;4994255;28;20333;-77
2022/12/22 10:47:57;;;;;;;;;;;;;;;;;;4995461;28;20385;-76
2022/12/22 10:50:22;;;;;;;;;;;;;;;;;;4994714;28;19914;-76
2022/12/22 10:52:48;;;;;;;;;;;;;;;;;;4995197;28;20025;-76
2022/12/22 10:55:13;;;;;;;;;;;;;;;;;;4995160;28;20065;-77
2022/12/22 10:57:38;;;;;;;;;;;;;;;;;;4994741;28;20396;-77
2022/12/22 11:00:04;;;;;;;;;;;;;;;;;;4995488;28;19921;-77
2022/12/22 11:02:29;;;;;;;;;;;;;;;;;;4994442;28;19914;-77
2022/12/22 11:04:55;;;;;;;;;;;;;;;;;;4992977;28;19921;-76
2022/12/22 11:07:20;;;;;;;;;;;;;;;;;;4994028;28;20293;-77
2022/12/22 11:09:46;;;;;;;;;;;;;;;;;;4994344;28;19969;-76
2022/12/22 11:12:11;;;;;;;;;;;;;;;;;;4994568;28;19914;-76
2022/12/22 11:14:37;;;;;;;;;;;;;;;;;;4994298;28;19917;-77
2022/12/22 11:17:02;;;;;;;;;;;;;;;;;;4993865;28;19914;-76
2022/12/22 11:19:28;;;;;;;;;;;;;;;;;;4992622;28;19917;-76
2022/12/22 11:21:53;;;;;;;;;;;;;;;;;;4993147;28;20029;-76
2022/12/22 11:24:20;;;;;;;;;;;;;;;;;;4993041;28;20277;-76
2022/12/22 11:26:45;;;;;;;;;;;;;;;;;;4992103;28;20012;-76
2022/12/22 11:29:11;;;;;;;;;;;;;;;;;;5005176;23;20011;-78
2022/12/22 11:31:36;;;;;;;;;;;;;;;;;;4994548;28;19914;-76
2022/12/22 11:34:02;;;;;;;;;;;;;;;;;;4995599;28;20015;-78
2022/12/22 11:36:27;;;;;;;;;;;;;;;;;;4994858;28;19910;-78
2022/12/22 11:38:52;;;;;;;;;;;;;;;;;;4994848;28;19913;-79
2022/12/22 11:41:18;;;;;;;;;;;;;;;;;;4996079;28;19921;-79
2022/12/22 11:43:43;;;;;;;;;;;;;;;;;;4996866;28;20266;-79
2022/12/22 11:46:09;;;;;;;;;;;;;;;;;;4997172;28;19914;-78
2022/12/22 11:48:34;;;;;;;;;;;;;;;;;;4996065;28;20437;-78
2022/12/22 11:50:59;;;;;;;;;;;;;;;;;;4997499;28;19933;-79
2022/12/22 11:53:25;;;;;;;;;;;;;;;;;;4995346;28;19921;-81
2022/12/22 11:55:50;;;;;;;;;;;;;;;;;;4995400;28;19975;-79
2022/12/22 11:58:16;;;;;;;;;;;;;;;;;;4994414;28;20289;-77
2022/12/22 12:00:41;;;;;;;;;;;;;;;;;;4995594;28;20004;-79
2022/12/22 12:03:06;;;;;;;;;;;;;;;;;;4994393;28;19920;-77
2022/12/22 12:05:32;;;;;;;;;;;;;;;;;;4995419;28;19921;-78
2022/12/22 12:07:57;;;;;;;;;;;;;;;;;;4994252;28;19960;-77
2022/12/22 12:10:23;;;;;;;;;;;;;;;;;;5001429;28;19913;-79
2022/12/22 12:12:48;;;;;;;;;;;;;;;;;;5002516;28;19914;-79
2022/12/22 12:15:13;;;;;;;;;;;;;;;;;;5002281;28;19921;-79
2022/12/22 12:17:39;;;;;;;;;;;;;;;;;;5001467;28;19964;-76
2022/12/22 12:20:04;;;;;;;;;;;;;;;;;;5001293;28;19972;-77
2022/12/22 12:22:30;;;;;;;;;;;;;;;;;;4998023;28;19910;-78
2022/12/22 12:24:55;;;;;;;;;;;;;;;;;;4998786;28;20289;-78
2022/12/22 12:27:20;;;;;;;;;;;;;;;;;;4995356;28;19960;-79
2022/12/22 12:29:46;;;;;;;;;;;;;;;;;;4994881;28;19917;-77
2022/12/22 12:32:11;;;;;;;;;;;;;;;;;;4999045;28;19921;-77
2022/12/22 12:34:36;;;;;;;;;;;;;;;;;;4978216;28;19917;-78
2022/12/22 12:37:02;;;;;;;;;;;;;;;;;;4995029;28;20337;-78
2022/12/22 12:39:27;;;;;;;;;;;;;;;;;;4976608;28;20008;-79
2022/12/22 12:41:53;;;;;;;;;;;;;;;;;;4976937;28;19921;-78
2022/12/22 12:44:18;;;;;;;;;;;;;;;;;;4993453;28;19921;-80
2022/12/22 12:46:43;;;;;;;;;;;;;;;;;;4993590;28;20282;-78
2022/12/22 12:49:09;;;;;;;;;;;;;;;;;;4994417;28;20008;-77
2022/12/22 12:51:34;;;;;;;;;;;;;;;;;;4993090;28;19918;-78
2022/12/22 12:54:00;;;;;;;;;;;;;;;;;;4992754;28;20028;-79
2022/12/22 12:56:25;;;;;;;;;;;;;;;;;;4993038;28;20407;-77
2022/12/22 12:58:51;;;;;;;;;;;;;;;;;;4994075;28;19921;-78
2022/12/22 13:01:17;;;;;;;;;;;;;;;;;;4977217;28;20421;-78
2022/12/22 13:03:42;;;;;;;;;;;;;;;;;;4993275;28;19960;-78
2022/12/22 13:06:08;;;;;;;;;;;;;;;;;;4992898;28;19976;-79
2022/12/22 13:08:50;;;;;;;;;;;;;;;;;;4994404;28;19913;-78
2022/12/22 13:11:15;;;;;;;;;;;;;;;;;;4976624;28;20298;-78
2022/12/22 13:13:41;;;;;;;;;;;;;;;;;;4992558;28;19972;-77
2022/12/22 13:16:06;;;;;;;;;;;;;;;;;;4992778;28;19910;-78
2022/12/22 13:18:31;;;;;;;;;;;;;;;;;;4994329;28;19937;-79
2022/12/22 13:20:57;;;;;;;;;;;;;;;;;;4992988;28;19960;-79
2022/12/22 13:23:22;;;;;;;;;;;;;;;;;;4976978;28;19953;-78
2022/12/22 13:25:48;;;;;;;;;;;;;;;;;;4994831;28;19913;-78
2022/12/22 13:28:13;;;;;;;;;;;;;;;;;;4977284;28;19998;-77
2022/12/22 13:30:38;;;;;;;;;;;;;;;;;;4993629;28;19925;-77
2022/12/22 13:33:04;;;;;;;;;;;;;;;;;;4996151;28;19918;-80
2022/12/22 13:35:29;;;;;;;;;;;;;;;;;;4994953;28;19989;-77
2022/12/22 13:37:56;;;;;;;;;;;;;;;;;;4993542;28;19996;-78
2022/12/22 13:40:21;;;;;;;;;;;;;;;;;;4992737;28;19914;-79
2022/12/22 13:42:49;;;;;;;;;;;;;;;;;;4993689;28;20433;-78
2022/12/22 13:45:15;;;;;;;;;;;;;;;;;;4993646;28;19918;-79
2022/12/22 13:47:40;;;;;;;;;;;;;;;;;;4992416;28;20029;-77
2022/12/22 13:50:05;;;;;;;;;;;;;;;;;;4993117;28;19917;-77
2022/12/22 13:52:31;;;;;;;;;;;;;;;;;;4993016;28;19914;-79
2022/12/22 13:54:56;;;;;;;;;;;;;;;;;;4993228;28;20013;-79
2022/12/22 13:57:22;;;;;;;;;;;;;;;;;;4993349;28;20282;-80
2022/12/22 13:59:48;;;;;;;;;;;;;;;;;;4991784;28;20005;-78
2022/12/22 14:02:14;;;;;;;;;;;;;;;;;;4991961;28;20333;-79
2022/12/22 14:04:39;;;;;;;;;;;;;;;;;;4992810;28;19968;-78
2022/12/22 14:07:05;;;;;;;;;;;;;;;;;;4976144;28;19933;-79
2022/12/22 14:09:30;;;;;;;;;;;;;;;;;;4993157;28;19965;-80
2022/12/22 14:11:55;;;;;;;;;;;;;;;;;;4992069;28;19914;-78
2022/12/22 14:14:21;;;;;;;;;;;;;;;;;;4991740;28;19918;-80
2022/12/22 14:16:46;;;;;;;;;;;;;;;;;;4993156;28;19914;-77
2022/12/22 14:19:12;;;;;;;;;;;;;;;;;;4991704;28;19910;-81
2022/12/22 14:21:37;;;;;;;;;;;;;;;;;;4992418;28;20811;-81
2022/12/22 14:24:03;;;;;;;;;;;;;;;;;;4991734;28;20001;-82
2022/12/22 14:26:28;;;;;;;;;;;;;;;;;;4993027;28;19914;-79
2022/12/22 14:28:54;;;;;;;;;;;;;;;;;;4975808;28;19964;-79
2022/12/22 14:31:19;;;;;;;;;;;;;;;;;;4976216;28;19925;-80
2022/12/22 14:33:45;;;;;;;;;;;;;;;;;;4993143;28;20292;-80
2022/12/22 14:36:10;;;;;;;;;;;;;;;;;;4993291;28;20303;-80
2022/12/22 14:38:36;;;;;;;;;;;;;;;;;;4993533;28;19961;-78
2022/12/22 14:41:01;;;;;;;;;;;;;;;;;;4991595;28;19910;-78
2022/12/22 14:43:27;;;;;;;;;;;;;;;;;;4991875;28;20327;-78
2022/12/22 14:45:52;;;;;;;;;;;;;;;;;;4992458;28;19925;-79
2022/12/22 14:48:17;;;;;;;;;;;;;;;;;;4993807;28;19914;-79
2022/12/22 14:50:43;;;;;;;;;;;;;;;;;;4992852;28;20274;-79
2022/12/22 14:53:08;;;;;;;;;;;;;;;;;;4993282;28;19940;-78
2022/12/22 14:55:34;;;;;;;;;;;;;;;;;;4995318;28;20012;-82
2022/12/22 14:57:59;;;;;;;;;;;;;;;;;;4996668;28;19934;-80
2022/12/22 15:00:24;;;;;;;;;;;;;;;;;;4996085;28;20472;-79
2022/12/22 15:02:50;;;;;;;;;;;;;;;;;;4998507;28;19921;-82
2022/12/22 15:05:15;;;;;;;;;;;;;;;;;;5001628;28;19918;-81
2022/12/22 15:07:41;;;;;;;;;;;;;;;;;;5004418;28;20136;-79
2022/12/22 15:10:06;;;;;;;;;;;;;;;;;;5002115;28;20251;-78
2022/12/22 15:12:31;;;;;;;;;;;;;;;;;;4998657;28;19921;-80
2022/12/22 15:14:57;;;;;;;;;;;;;;;;;;4996820;28;19918;-80
2022/12/22 15:17:24;;;;;;;;;;;;;;;;;;4996989;28;20398;-78
2022/12/22 15:19:50;;;;;;;;;;;;;;;;;;4998071;28;19914;-78
2022/12/22 15:22:15;;;;;;;;;;;;;;;;;;4997102;28;19953;-79
2022/12/22 15:24:41;;;;;;;;;;;;;;;;;;4997298;28;20393;-80
2022/12/22 15:27:06;;;;;;;;;;;;;;;;;;4998288;28;19920;-81
2022/12/22 15:29:31;;;;;;;;;;;;;;;;;;4996347;28;19960;-79
2022/12/22 15:31:57;;;;;;;;;;;;;;;;;;4998312;28;19921;-81
2022/12/22 15:34:22;;;;;;;;;;;;;;;;;;5001004;28;19925;-77
2022/12/22 15:36:48;;;;;;;;;;;;;;;;;;4982691;28;19913;-80
2022/12/22 15:39:13;;;;;;;;;;;;;;;;;;4999712;28;20005;-79
2022/12/22 15:41:39;;;;;;;;;;;;;;;;;;4983194;28;19921;-82
2022/12/22 15:44:04;;;;;;;;;;;;;;;;;;5001707;28;20113;-79
2022/12/22 15:46:30;;;;;;;;;;;;;;;;;;4999038;28;19921;-82
2022/12/22 15:48:55;;;;;;;;;;;;;;;;;;5000726;28;20461;-81
2022/12/22 15:51:20;;;;;;;;;;;;;;;;;;4982757;28;20401;-82
2022/12/22 15:53:46;;;;;;;;;;;;;;;;;;5000352;28;19975;-80
2022/12/22 15:56:11;;;;;;;;;;;;;;;;;;4983065;28;19918;-80
2022/12/22 15:58:37;;;;;;;;;;;;;;;;;;4998251;28;20627;-81
2022/12/22 16:01:02;;;;;;;;;;;;;;;;;;4999754;28;19914;-80
2022/12/22 16:03:28;;;;;;;;;;;;;;;;;;4998896;28;19913;-80
2022/12/22 16:05:53;;;;;;;;;;;;;;;;;;4996661;28;19913;-79
2022/12/22 16:08:19;;;;;;;;;;;;;;;;;;4995424;28;20392;-77
2022/12/22 16:10:44;;;;;;;;;;;;;;;;;;4995217;28;19921;-80
2022/12/22 16:13:09;;;;;;;;;;;;;;;;;;4993471;28;20436;-77
2022/12/22 16:15:35;;;;;;;;;;;;;;;;;;4993507;28;19972;-78
2022/12/22 16:18:00;;;;;;;;;;;;;;;;;;4994580;28;19957;-78
2022/12/22 16:20:26;;;;;;;;;;;;;;;;;;4993306;28;19941;-79
2022/12/22 16:22:51;;;;;;;;;;;;;;;;;;4994053;28;19914;-78
2022/12/22 16:25:16;;;;;;;;;;;;;;;;;;4993706;28;20004;-78
2022/12/22 16:27:42;;;;;;;;;;;;;;;;;;4994770;28;19960;-78
2022/12/22 16:30:07;;;;;;;;;;;;;;;;;;4994595;28;20337;-78
2022/12/22 16:32:33;;;;;;;;;;;;;;;;;;4993169;28;20293;-77
2022/12/22 16:34:58;;;;;;;;;;;;;;;;;;4994490;28;19925;-79
2022/12/22 16:37:23;;;;;;;;;;;;;;;;;;4977297;28;19921;-78
2022/12/22 16:39:49;;;;;;;;;;;;;;;;;;4993298;28;19914;-78
2022/12/22 16:42:14;;;;;;;;;;;;;;;;;;4993447;28;19945;-77
2022/12/22 16:44:40;;;;;;;;;;;;;;;;;;4993414;28;19921;-77
2022/12/22 16:47:05;;;;;;;;;;;;;;;;;;4994284;28;19918;-78
2022/12/22 16:49:31;;;;;;;;;;;;;;;;;;4993320;28;19949;-78
2022/12/22 16:51:56;;;;;;;;;;;;;;;;;;4995004;28;19914;-80
2022/12/22 16:54:21;;;;;;;;;;;;;;;;;;4977132;28;20385;-78
2022/12/22 16:56:50;;;;;;;;;;;;;;;;;;4996756;28;19924;-79
2022/12/22 16:59:16;;;;;;;;;;;;;;;;;;4993659;28;20009;-77
2022/12/22 17:01:42;;;;;;;;;;;;;;;;;;4994943;28;19933;-78
2022/12/22 17:04:07;;;;;;;;;;;;;;;;;;4994126;28;19914;-78
2022/12/22 17:06:33;;;;;;;;;;;;;;;;;;4994546;28;19914;-79
2022/12/22 17:08:58;;;;;;;;;;;;;;;;;;4997696;28;19937;-78
2022/12/22 17:11:24;;;;;;;;;;;;;;;;;;5002156;28;19914;-79
2022/12/22 17:13:50;;;;;;;;;;;;;;;;;;4985558;28;19924;-78
2022/12/22 17:16:15;;;;;;;;;;;;;;;;;;4998698;28;20320;-79
2022/12/22 17:18:40;;;;;;;;;;;;;;;;;;4997590;28;20337;-78
2022/12/22 17:21:06;;;;;;;;;;;;;;;;;;4995266;28;20305;-79
2022/12/22 17:23:31;;;;;;;;;;;;;;;;;;4994412;28;19936;-79
2022/12/22 17:25:57;;;;;;;;;;;;;;;;;;4993264;28;19920;-78
2022/12/22 17:28:22;;;;;;;;;;;;;;;;;;4994251;28;20016;-79
2022/12/22 17:30:48;;;;;;;;;;;;;;;;;;4993644;28;19917;-78
2022/12/22 17:33:13;;;;;;;;;;;;;;;;;;4993543;28;19921;-78
2022/12/22 17:35:38;;;;;;;;;;;;;;;;;;4992527;28;19913;-78
2022/12/22 17:38:04;;;;;;;;;;;;;;;;;;4992851;28;20452;-79
2022/12/22 17:40:29;;;;;;;;;;;;;;;;;;4992328;28;20439;-79
2022/12/22 17:42:55;;;;;;;;;;;;;;;;;;4992199;28;19965;-78
2022/12/22 17:45:20;;;;;;;;;;;;;;;;;;4992234;28;19964;-79
2022/12/22 17:47:46;;;;;;;;;;;;;;;;;;4993408;28;19914;-80
2022/12/22 17:50:12;;;;;;;;;;;;;;;;;;4993303;28;19914;-78
2022/12/22 17:52:37;;;;;;;;;;;;;;;;;;4993119;28;19914;-79
2022/12/22 17:55:03;;;;;;;;;;;;;;;;;;4975610;28;20012;-80
2022/12/22 17:57:29;;;;;;;;;;;;;;;;;;4993353;28;19992;-79
2022/12/22 17:59:54;;;;;;;;;;;;;;;;;;4991798;28;19921;-78
2022/12/22 18:02:19;;;;;;;;;;;;;;;;;;4993594;28;20389;-77
2022/12/22 18:04:45;;;;;;;;;;;;;;;;;;4976939;28;19917;-77
2022/12/22 18:07:10;;;;;;;;;;;;;;;;;;4993736;28;20282;-79
2022/12/22 18:09:36;;;;;;;;;;;;;;;;;;4993436;28;20293;-77
2022/12/22 18:12:01;;;;;;;;;;;;;;;;;;4992745;28;19914;-78
2022/12/22 18:14:27;;;;;;;;;;;;;;;;;;4993323;28;19922;-78
2022/12/22 18:16:52;;;;;;;;;;;;;;;;;;4993477;28;19914;-79
2022/12/22 18:19:17;;;;;;;;;;;;;;;;;;4993863;28;20399;-78
2022/12/22 18:21:43;;;;;;;;;;;;;;;;;;4992618;28;19914;-78
2022/12/22 18:24:08;;;;;;;;;;;;;;;;;;4992305;28;19914;-79
2022/12/22 18:26:34;;;;;;;;;;;;;;;;;;4993219;28;20311;-78
2022/12/22 18:29:00;;;;;;;;;;;;;;;;;;4992917;28;19913;-79
2022/12/22 18:31:26;;;;;;;;;;;;;;;;;;4992847;28;19917;-78
2022/12/22 18:33:51;;;;;;;;;;;;;;;;;;4992778;28;20377;-77
2022/12/22 18:36:16;;;;;;;;;;;;;;;;;;4993266;28;19920;-76
2022/12/22 18:38:42;;;;;;;;;;;;;;;;;;4991921;28;20288;-77
2022/12/22 18:41:07;;;;;;;;;;;;;;;;;;4993253;28;19918;-80
2022/12/22 18:43:32;;;;;;;;;;;;;;;;;;4995904;28;19920;-77
2022/12/22 18:45:58;;;;;;;;;;;;;;;;;;4995837;28;19914;-78
2022/12/22 18:48:23;;;;;;;;;;;;;;;;;;4997326;28;19914;-76
2022/12/22 18:50:49;;;;;;;;;;;;;;;;;;4996381;28;19914;-78
2022/12/22 18:53:14;;;;;;;;;;;;;;;;;;4979918;28;19921;-78
2022/12/22 18:55:39;;;;;;;;;;;;;;;;;;4996328;28;19964;-79
2022/12/22 18:58:05;;;;;;;;;;;;;;;;;;4995759;28;19918;-78
2022/12/22 19:00:30;;;;;;;;;;;;;;;;;;4995437;28;20008;-77
2022/12/22 19:02:56;;;;;;;;;;;;;;;;;;4995649;28;20056;-78
2022/12/22 19:05:21;;;;;;;;;;;;;;;;;;4997195;28;20397;-76
2022/12/22 19:07:46;;;;;;;;;;;;;;;;;;4980112;28;19914;-78
2022/12/22 19:10:12;;;;;;;;;;;;;;;;;;4997557;28;19921;-79
2022/12/22 19:12:37;;;;;;;;;;;;;;;;;;4983786;28;19921;-78
2022/12/22 19:15:03;;;;;;;;;;;;;;;;;;4999875;28;19925;-78
2022/12/22 19:17:28;;;;;;;;;;;;;;;;;;5000357;28;19922;-78
2022/12/22 19:19:54;;;;;;;;;;;;;;;;;;4982661;28;19918;-77
2022/12/22 19:22:19;;;;;;;;;;;;;;;;;;5000422;28;20348;-79
2022/12/22 19:24:44;;;;;;;;;;;;;;;;;;5001380;28;19957;-80
2022/12/22 19:27:10;;;;;;;;;;;;;;;;;;4998981;28;20362;-78
2022/12/22 19:29:35;;;;;;;;;;;;;;;;;;4996515;28;19952;-78
2022/12/22 19:32:01;;;;;;;;;;;;;;;;;;4996079;28;19914;-77
2022/12/22 19:34:26;;;;;;;;;;;;;;;;;;4995542;28;20021;-78
2022/12/22 19:36:51;;;;;;;;;;;;;;;;;;4996538;28;20296;-77
2022/12/22 19:39:17;;;;;;;;;;;;;;;;;;4996888;28;19914;-77
2022/12/22 19:41:42;;;;;;;;;;;;;;;;;;4995523;28;19914;-77
2022/12/22 19:44:07;;;;;;;;;;;;;;;;;;4996190;28;19953;-78
2022/12/22 19:46:33;;;;;;;;;;;;;;;;;;4995689;28;19917;-78
2022/12/22 19:48:58;;;;;;;;;;;;;;;;;;4995813;28;19960;-78
2022/12/22 19:51:24;;;;;;;;;;;;;;;;;;4978564;28;19936;-77
2022/12/22 19:53:49;;;;;;;;;;;;;;;;;;4995287;28;19968;-77
2022/12/22 19:56:14;;;;;;;;;;;;;;;;;;4997380;28;19922;-78
2022/12/22 19:58:40;;;;;;;;;;;;;;;;;;4994241;28;19914;-76
2022/12/22 20:01:10;;;;;;;;;;;;;;;;;;4995460;28;19921;-78
2022/12/22 20:03:35;;;;;;;;;;;;;;;;;;4995412;28;19924;-78
2022/12/22 20:06:01;;;;;;;;;;;;;;;;;;4978549;28;20000;-77
2022/12/22 20:08:26;;;;;;;;;;;;;;;;;;4995541;28;20351;-78
2022/12/22 20:10:51;;;;;;;;;;;;;;;;;;4995586;28;19913;-79
2022/12/22 20:13:17;;;;;;;;;;;;;;;;;;4997009;28;19918;-80